Tomer Revivo

Recruteur - Hapoel Tel Aviv
2 Juil 2028
Dimanche
Processus

Personnalité

Adaptabilité (4) Ambition (11) Controverse (15) Loyauté (1) Pression (11) Professionnalisme (5) Sportivité (18) Tempérament (8)

Profil

Style d'entraînement Démocratique
Diplôme Continental B
Détermination 6
Gestion des joueurs 9
Motivation 11
Discipline 5
Satisfaction professionnelle
100%
Fatigue
0%
Rôle Recruteur
Salaire 51.6K p/s
Contrat 14.03.2029

Performance

Comportement Bon
Efficacité de l'entraînement
34%
Développement des joueurs
35%
Prévention des blessures
55%
Mise en place tactique
20%

Événements récents

A participé à une réunion de recrutement maintenant
A participé à une réunion de recrutement maintenant
A évalué un joueur 7j
A participé à une réunion de recrutement 7j
A participé à une réunion de recrutement 7j
A participé à une réunion de recrutement 7j
A présenté un dossier au conseil 7j
A participé à une réunion de recrutement 14j

Suivi en cours

113
Joueur Club Statut Capacité Confiance Observé Dernière observation Dernier vote
Luca Williams-Barnett Walsall Actif 112 / 126 40% 6 27.06.2028 -
Bautista Carboni Defensores Unidos Actif 119 / 102 40% 1 27.06.2028 -
Noah Fernandez PSV Actif 123 / 119 40% 3 19.06.2028 -
Francisco Fernandes Porto Actif 99 / 122 40% 2 19.06.2028 -
Andrey Ivlev Nizhniy Novgorod Actif 97 / 124 40% 2 12.06.2028 -
Romuald Sawadogo Hapoel Raanana Actif 108 / 100 55% 1 12.06.2028 -
Celías Ingenthron Platense Actif 98 / 117 40% 1 12.06.2028 -
Olivier Leroux Mouscron Actif 112 / 119 40% 2 02.06.2028 -
Bernardo Lima Porto Actif 100 / 128 40% 4 02.06.2028 -
Pedro Mendes Modena Actif 133 / 132 40% 1 01.06.2028 -
Stephen Humphrys Bradford City Actif 126 / 123 40% 1 01.06.2028 -
Camillo Tavernelli Arezzo Actif 133 / 129 40% 1 31.05.2028 Plus d'infos
Charlie Kelman Barnsley Actif 128 / 119 40% 1 31.05.2028 -
Jake Evans Crewe Alexandra Actif 122 / 130 40% 6 29.05.2028 -
Eduardo Fernandes Benfica Actif 109 / 126 40% 2 29.05.2028 -
Tomás Peixoto Porto Actif 102 / 110 40% 4 28.05.2028 -
Kofi Duffour Cherepovets Actif 71 / 94 40% 1 28.05.2028 -
Ben Broggio Mansfield Town Actif 118 / 104 40% 3 24.05.2028 -
Igor Tyjon Barrow AFC Actif 132 / 111 40% 5 20.05.2028 -
İsak Vural Audace Cerignola Actif 105 / 123 40% 1 20.05.2028 -
Daniel Banjaqui Benfica Actif 128 / 134 40% 6 19.05.2028 -
Gabe Forsyth Colchester United Actif 103 / 107 40% 4 16.05.2028 -
Luca Scarlato Perugia Actif 85 / 100 40% 1 16.05.2028 -
Isaque Obolon Actif 116 / 136 40% 3 13.05.2028 -
Philippe Nguyen Tours Actif 118 / 117 40% 2 12.05.2028 -
Luca Meirelles Kudrivka Actif 127 / 136 40% 5 10.05.2028 -
Josh Nichols Oldham Athletic Actif 106 / 117 40% 2 03.05.2028 -
Paulo Iago Sporting CP Actif 103 / 113 40% 2 03.05.2028 -
Gabriel Mec Feirense Actif 141 / 120 40% 6 01.05.2028 -
Kerim Alajbegović Modena Actif 145 / 147 40% 4 30.04.2028 -
João Abreu Porto Actif 90 / 109 40% 3 29.04.2028 -
Sayed Abu Farchi Maccabi Tel Aviv Actif 137 / 120 40% 3 29.04.2028 -
Nana Nuhu WAFA Actif 98 / 90 40% 3 28.04.2028 -
Eduard Ihnatov Ospitaletto Actif 118 / 113 40% 1 25.04.2028 -
André Miranda Porto Actif 121 / 118 40% 5 23.04.2028 -
Rafael Camacho Sporting CP Actif 118 / 122 40% 1 22.04.2028 -
Oscar Schwartau Norwich City Actif 142 / 122 40% 1 22.04.2028 -
Otto Stange Borussia Mönchengladbach Actif 115 / 135 40% 1 20.04.2028 -
Gilbert Bandama Hapoel Kfar Saba Actif 115 / 118 51% 3 13.04.2028 Observer
Giovanni Cantizano Fulham Actif 115 / 118 40% 2 11.04.2028 -
Luke Brooke-Smith Chesterfield Actif 83 / 108 40% 1 05.04.2028 -
Kwandile Gumemde US Bougouni Actif 89 / 82 40% 1 02.04.2028 -
Abubakar Adams Aduana Stars Actif 85 / 92 40% 1 02.04.2028 -
Alphadjo Cissé Lecce Actif 147 / 124 40% 2 01.04.2028 -
Vincenzo Damiano Atalanta Actif 89 / 104 40% 1 30.03.2028 -
Jan Bürger Northampton Town Actif 123 / 126 40% 5 28.03.2028 -
Ryan Kavuma-McQueen Accrington Stanley Actif 131 / 128 40% 3 27.03.2028 -
Leo Pecover Swindon Town Actif 100 / 100 40% 2 27.03.2028 -
Amin Nabizada Exeter City Actif 104 / 112 40% 2 25.03.2028 -
Will Dobson Newcastle Jets Actif 119 / 106 40% 2 23.03.2028 -
Wassim Bouziane AZ Actif 108 / 118 40% 1 20.03.2028 -
Jorthy Mokio ADO Den Haag Actif 147 / 135 40% 2 19.03.2028 -
Henrique Carmo Sochi Actif 129 / 120 40% 2 18.03.2028 -
Oskar Pietuszewski Estrela da Amadora Actif 120 / 143 40% 1 18.03.2028 -
Matvey Ivanov Zenit Actif 67 / 83 40% 2 14.03.2028 -
Lander Astiazarán Real Sociedad Actif 123 / 116 40% 2 14.03.2028 -
Ibrahim Fullah Charlton Athletic Actif 108 / 134 40% 1 08.03.2028 -
Fletcher Boyd Accrington Stanley Actif 100 / 99 40% 1 28.02.2028 -
Amine Boukamir Charleroi Actif 122 / 115 40% 3 26.02.2028 -
Omar Khedr Gillingham Actif 128 / 115 40% 1 23.02.2028 -
Tshiamo Masisi Unisport Bafang Actif 91 / 103 40% 2 22.02.2028 -
Denis Pokotylo Chelyabinsk Actif 84 / 101 40% 1 18.02.2028 -
Shea Lacey Crystal Palace Actif 121 / 144 40% 1 11.02.2028 -
Ryan McAidoo Oldham Athletic Actif 130 / 142 40% 1 08.02.2028 -
Gabriele Bertolini Vicenza Actif 118 / 110 40% 1 07.02.2028 -
Martim Cunha Porto Actif 107 / 110 40% 2 03.02.2028 -
Itumeleng Jali Spezia Actif 134 / 125 40% 1 03.02.2028 -
Thijs Kraaijeveld USM Alger Négociation 118 / 114 40% 1 01.02.2028 -
Esquerdinha Notts County Actif 111 / 132 40% 1 31.01.2028 -
Francisco Machis Llaneros Actif 80 / 103 40% 1 18.01.2028 -
Tyler Fletcher Rotherham United Actif 118 / 118 40% 1 18.01.2028 -
José Cortés Maccabi Petach Tikva Actif 100 / 121 51% 1 17.01.2028 -
Olivier Mambwa Young Boys Actif 97 / 115 40% 1 17.01.2028 -
Jamie Wähling Hibernians Actif 90 / 100 40% 1 17.01.2028 -
Adnan Nainggolan KV Oostende Actif 103 / 100 40% 1 08.01.2028 -
Noah Fenyő Ujpest Actif 113 / 113 40% 1 08.01.2028 -
Alexis Cuello San Lorenzo Actif 142 / 136 40% 1 06.01.2028 -
Hosea Michael Remo Stars Actif 87 / 82 40% 1 22.06.2027 -
Olalekan Adeleke Remo Stars Actif 97 / 89 40% 1 22.06.2027 -
Charlie Gray Fleetwood Town Actif 102 / 100 40% 6 15.06.2027 -
Andrea Bertoncini Triestina Actif 97 / 95 40% 3 15.06.2027 -
Callum O'Hare Sheffield United Actif 145 / 136 40% 1 02.06.2027 -
Victor Hernandez Santa Fe Actif 118 / 122 40% 3 30.05.2027 -
Edwin Asamoah Berekum Chelsea Actif 88 / 78 40% 4 29.05.2027 -
Sascha Britschgi AC Milan Actif 109 / 135 40% 3 26.05.2027 -
Kazunari Kita Real Sociedad Actif 100 / 107 40% 4 24.05.2027 -
Tiago Freitas Benfica Actif 104 / 128 40% 1 20.05.2027 -
Ahmed Akinyele Remo Stars Actif 107 / 91 40% 2 18.05.2027 -
Caleb Yirenkyi Coventry City Actif 144 / 144 40% 4 10.05.2027 -
Chari Giwa US Bougouni Actif 95 / 82 40% 1 10.05.2027 -
Godwin Oham Warri Wolves Actif 94 / 83 40% 1 08.05.2027 -
Pedro Vian Seewald Dolomiti Bellunesi Actif 108 / 87 40% 1 07.05.2027 -
Riley Owen Stevenage Actif 85 / 120 40% 2 06.05.2027 -
Mpho Khethang FC Diarra Actif 76 / 91 40% 1 02.05.2027 -
Samuele di Benedetto Twente Actif 107 / 109 40% 2 01.05.2027 -
Joseph Namatane FC Metz Actif 83 / 100 40% 1 30.04.2027 -
Jenson Jones Walsall Actif 90 / 101 40% 3 28.04.2027 -
Konta Ismaily Actif 73 / 92 40% 1 26.04.2027 -
Zane Albarus Shrewsbury Town Actif 84 / 111 40% 1 24.04.2027 -
Bade Aluko Leicester City Actif 115 / 121 40% 1 24.04.2027 -
Tommaso Cecotti Carpi Actif 86 / 95 40% 3 23.04.2027 -
Bence Dárdai VfL Wolfsburg Actif 132 / 137 40% 1 22.04.2027 -
Wessel Kuhn PSV Actif 89 / 103 40% 1 22.04.2027 -
Moncef Zekri Sporting CP Actif 101 / 103 40% 1 19.04.2027 -
Leandro Martins Benfica Actif 102 / 87 40% 1 17.04.2027 -
Alessandro Zoboletti Sambenedettese Actif 81 / 84 40% 1 11.04.2027 -
Kiani Inge Groningen Actif 109 / 127 40% 1 08.04.2027 -
Maldini Kacurri Grimsby Town Actif 77 / 101 40% 2 05.04.2027 -
Ezra Mayers West Ham United Actif 110 / 136 40% 1 02.04.2027 -
James Dornelly Peterborough United Actif 99 / 105 40% 1 22.03.2027 -
David Ozoh Derby County Actif 109 / 112 40% 1 18.03.2027 -
Kamaldeen Atiemo Wa All Stars Actif 116 / 102 40% 1 18.03.2027 -
Kristoffer Lund Birmingham Actif 137 / 112 40% 1 02.08.2026 -